sensor_id;sensor_type;location;lat;lon;timestamp;pressure;altitude;pressure_sealevel;temperature;humidity
67038;BME280;53940;53.204;6.590;2024-03-23T00:52:30;100843.22;;;22.19;53.16
67038;BME280;53940;53.204;6.590;2024-03-23T00:55:30;100850.13;;;22.22;52.97
67038;BME280;53940;53.204;6.590;2024-03-23T00:58:31;100843.63;;;22.25;52.88
67038;BME280;53940;53.204;6.590;2024-03-23T01:01:31;100835.41;;;22.26;52.94
67038;BME280;53940;53.204;6.590;2024-03-23T01:04:31;100821.84;;;22.28;52.80
67038;BME280;53940;53.204;6.590;2024-03-23T01:07:31;100817.16;;;22.30;52.72
67038;BME280;53940;53.204;6.590;2024-03-23T01:10:32;100812.47;;;22.32;52.50
67038;BME280;53940;53.204;6.590;2024-03-23T01:13:33;100813.19;;;22.34;52.82
67038;BME280;53940;53.204;6.590;2024-03-23T01:16:33;100806.69;;;22.37;52.38
67038;BME280;53940;53.204;6.590;2024-03-23T01:19:33;100801.13;;;22.38;52.20
67038;BME280;53940;53.204;6.590;2024-03-23T01:22:33;100801.72;;;22.42;52.41
67038;BME280;53940;53.204;6.590;2024-03-23T01:25:34;100813.13;;;22.44;52.19
67038;BME280;53940;53.204;6.590;2024-03-23T01:28:34;100803.06;;;22.46;52.38
67038;BME280;53940;53.204;6.590;2024-03-23T01:31:35;100793.88;;;22.48;52.17
67038;BME280;53940;53.204;6.590;2024-03-23T01:34:35;100790.91;;;22.52;52.05
67038;BME280;53940;53.204;6.590;2024-03-23T01:37:35;100787.91;;;22.55;52.10
67038;BME280;53940;53.204;6.590;2024-03-23T01:40:36;100784.94;;;22.58;52.22
67038;BME280;53940;53.204;6.590;2024-03-23T01:43:36;100775.88;;;22.59;52.04
67038;BME280;53940;53.204;6.590;2024-03-23T01:46:37;100771.91;;;22.63;52.01
67038;BME280;53940;53.204;6.590;2024-03-23T01:49:38;100767.19;;;22.65;51.66
67038;BME280;53940;53.204;6.590;2024-03-23T01:52:38;100763.38;;;22.68;51.58
67038;BME280;53940;53.204;6.590;2024-03-23T01:55:39;100755.97;;;22.70;51.75
67038;BME280;53940;53.204;6.590;2024-03-23T01:58:39;100751.16;;;22.73;51.48
67038;BME280;53940;53.204;6.590;2024-03-23T02:01:39;100749.16;;;22.75;51.50
67038;BME280;53940;53.204;6.590;2024-03-23T02:04:40;100744.31;;;22.79;51.43
67038;BME280;53940;53.204;6.590;2024-03-23T02:07:41;100736.94;;;22.81;51.33
67038;BME280;53940;53.204;6.590;2024-03-23T02:10:43;100735.78;;;22.84;51.28
67038;BME280;53940;53.204;6.590;2024-03-23T02:13:43;100727.56;;;22.85;51.35
67038;BME280;53940;53.204;6.590;2024-03-23T02:16:43;100726.25;;;22.89;51.14
67038;BME280;53940;53.204;6.590;2024-03-23T02:19:44;100724.09;;;22.93;51.10
67038;BME280;53940;53.204;6.590;2024-03-23T02:22:51;100726.63;;;22.95;50.96
67038;BME280;53940;53.204;6.590;2024-03-23T02:25:52;100719.22;;;22.97;51.03
67038;BME280;53940;53.204;6.590;2024-03-23T02:28:53;100723.44;;;22.99;50.95
67038;BME280;53940;53.204;6.590;2024-03-23T02:31:53;100723.44;;;22.99;50.91
67038;BME280;53940;53.204;6.590;2024-03-23T02:34:54;100707.03;;;23.02;50.85
67038;BME280;53940;53.204;6.590;2024-03-23T02:37:54;100708.69;;;23.04;50.66
67038;BME280;53940;53.204;6.590;2024-03-23T02:41:02;100712.06;;;23.06;50.34
67038;BME280;53940;53.204;6.590;2024-03-23T02:44:02;100713.78;;;23.07;49.65
67038;BME280;53940;53.204;6.590;2024-03-23T02:47:03;100705.00;;;23.05;48.69
67038;BME280;53940;53.204;6.590;2024-03-23T02:50:04;100706.88;;;23.04;48.68
67038;BME280;53940;53.204;6.590;2024-03-23T02:53:04;100702.31;;;23.05;48.71
67038;BME280;53940;53.204;6.590;2024-03-23T02:56:05;100699.63;;;23.05;48.97
67038;BME280;53940;53.204;6.590;2024-03-23T02:59:05;100692.28;;;23.07;48.88
67038;BME280;53940;53.204;6.590;2024-03-23T03:02:05;100685.91;;;23.08;48.93
67038;BME280;53940;53.204;6.590;2024-03-23T03:05:06;100677.84;;;23.08;49.11
67038;BME280;53940;53.204;6.590;2024-03-23T03:08:08;100679.50;;;23.09;49.14
67038;BME280;53940;53.204;6.590;2024-03-23T03:11:09;100676.81;;;23.09;49.09
67038;BME280;53940;53.204;6.590;2024-03-23T03:14:09;100675.81;;;23.10;49.17
67038;BME280;53940;53.204;6.590;2024-03-23T03:17:10;100675.81;;;23.10;49.28
67038;BME280;53940;53.204;6.590;2024-03-23T03:20:10;100674.81;;;23.11;49.26
67038;BME280;53940;53.204;6.590;2024-03-23T03:23:13;100670.44;;;23.10;49.35
67038;BME280;53940;53.204;6.590;2024-03-23T03:26:13;100671.09;;;23.12;49.42
67038;BME280;53940;53.204;6.590;2024-03-23T03:29:14;100660.34;;;23.12;49.43
67038;BME280;53940;53.204;6.590;2024-03-23T03:32:14;100652.28;;;23.12;49.39
67038;BME280;53940;53.204;6.590;2024-03-23T03:35:15;100659.38;;;23.13;49.41
67038;BME280;53940;53.204;6.590;2024-03-23T03:38:15;100658.53;;;23.12;49.49
67038;BME280;53940;53.204;6.590;2024-03-23T03:41:15;100647.78;;;23.12;49.49
67038;BME280;53940;53.204;6.590;2024-03-23T03:44:16;100651.31;;;23.13;49.34
67038;BME280;53940;53.204;6.590;2024-03-23T03:47:17;100645.94;;;23.13;49.43
67038;BME280;53940;53.204;6.590;2024-03-23T03:50:17;100647.78;;;23.12;49.41
67038;BME280;53940;53.204;6.590;2024-03-23T03:53:18;100643.25;;;23.13;49.38
67038;BME280;53940;53.204;6.590;2024-03-23T03:56:18;100635.34;;;23.11;49.35
67038;BME280;53940;53.204;6.590;2024-03-23T03:59:18;100634.50;;;23.11;49.26
67038;BME280;53940;53.204;6.590;2024-03-23T04:02:20;100629.97;;;23.11;49.34
67038;BME280;53940;53.204;6.590;2024-03-23T04:05:20;100626.44;;;23.11;49.27
67038;BME280;53940;53.204;6.590;2024-03-23T04:08:21;100632.81;;;23.10;49.33
67038;BME280;53940;53.204;6.590;2024-03-23T04:11:21;100628.28;;;23.10;49.14
67038;BME280;53940;53.204;6.590;2024-03-23T04:14:22;100626.44;;;23.11;49.12
67038;BME280;53940;53.204;6.590;2024-03-23T04:17:22;100625.59;;;23.10;49.17
67038;BME280;53940;53.204;6.590;2024-03-23T04:20:22;100625.75;;;23.09;49.15
67038;BME280;53940;53.204;6.590;2024-03-23T04:23:23;100620.38;;;23.09;49.26
67038;BME280;53940;53.204;6.590;2024-03-23T04:26:23;100620.38;;;23.09;49.15
67038;BME280;53940;53.204;6.590;2024-03-23T04:29:23;100613.31;;;23.08;49.02
67038;BME280;53940;53.204;6.590;2024-03-23T04:32:24;100607.94;;;23.08;49.13
67038;BME280;53940;53.204;6.590;2024-03-23T04:35:24;100614.16;;;23.08;49.17
67038;BME280;53940;53.204;6.590;2024-03-23T04:38:27;100608.97;;;23.07;49.22
67038;BME280;53940;53.204;6.590;2024-03-23T04:41:28;100609.94;;;23.06;49.09
67038;BME280;53940;53.204;6.590;2024-03-23T04:44:29;100598.34;;;23.05;49.26
67038;BME280;53940;53.204;6.590;2024-03-23T04:47:29;100600.91;;;23.07;49.10
67038;BME280;53940;53.204;6.590;2024-03-23T04:50:29;100604.56;;;23.06;49.16
67038;BME280;53940;53.204;6.590;2024-03-23T04:53:30;100608.25;;;23.05;49.12
67038;BME280;53940;53.204;6.590;2024-03-23T04:56:30;100601.19;;;23.04;49.35
67038;BME280;53940;53.204;6.590;2024-03-23T04:59:31;100591.47;;;23.02;49.27
67038;BME280;53940;53.204;6.590;2024-03-23T05:02:32;100595.97;;;23.02;49.54
67038;BME280;53940;53.204;6.590;2024-03-23T05:05:34;100591.63;;;23.01;49.34
67038;BME280;53940;53.204;6.590;2024-03-23T05:08:35;100588.09;;;23.00;49.42
67038;BME280;53940;53.204;6.590;2024-03-23T05:11:35;100589.94;;;23.00;49.56
67038;BME280;53940;53.204;6.590;2024-03-23T05:14:35;100584.56;;;23.00;49.51
67038;BME280;53940;53.204;6.590;2024-03-23T05:17:36;100589.94;;;23.00;49.54
67038;BME280;53940;53.204;6.590;2024-03-23T05:20:37;100585.72;;;22.97;49.66
67038;BME280;53940;53.204;6.590;2024-03-23T05:23:38;100585.72;;;22.97;49.54
67038;BME280;53940;53.204;6.590;2024-03-23T05:26:38;100591.94;;;22.98;49.71
67038;BME280;53940;53.204;6.590;2024-03-23T05:29:39;100585.88;;;22.96;49.73
67038;BME280;53940;53.204;6.590;2024-03-23T05:32:39;100588.56;;;22.96;49.74
67038;BME280;53940;53.204;6.590;2024-03-23T05:35:41;100585.06;;;22.95;49.81
67038;BME280;53940;53.204;6.590;2024-03-23T05:38:42;100585.88;;;22.96;49.91
67038;BME280;53940;53.204;6.590;2024-03-23T05:41:42;100592.25;;;22.95;49.89
67038;BME280;53940;53.204;6.590;2024-03-23T05:44:46;100586.06;;;22.94;50.22
67038;BME280;53940;53.204;6.590;2024-03-23T05:47:46;100591.44;;;22.94;50.11
67038;BME280;53940;53.204;6.590;2024-03-23T05:50:48;100585.34;;;22.92;50.02
67038;BME280;53940;53.204;6.590;2024-03-23T05:53:49;100593.41;;;22.92;50.05
67038;BME280;53940;53.204;6.590;2024-03-23T05:56:49;100589.06;;;22.91;50.04
67038;BME280;53940;53.204;6.590;2024-03-23T05:59:54;100588.03;;;22.92;50.11
67038;BME280;53940;53.204;6.590;2024-03-23T06:02:54;100585.34;;;22.92;50.14
67038;BME280;53940;53.204;6.590;2024-03-23T06:05:54;100603.16;;;22.93;50.02
67038;BME280;53940;53.204;6.590;2024-03-23T06:08:55;100599.66;;;22.93;50.22
67038;BME280;53940;53.204;6.590;2024-03-23T06:11:56;100605.03;;;22.93;50.15
67038;BME280;53940;53.204;6.590;2024-03-23T06:14:56;100609.53;;;22.92;50.32
67038;BME280;53940;53.204;6.590;2024-03-23T06:17:56;100616.59;;;22.93;50.26
67038;BME280;53940;53.204;6.590;2024-03-23T06:20:57;100603.16;;;22.93;50.33
67038;BME280;53940;53.204;6.590;2024-03-23T06:23:57;100581.00;;;22.91;50.47
67038;BME280;53940;53.204;6.590;2024-03-23T06:26:57;100587.22;;;22.92;50.51
67038;BME280;53940;53.204;6.590;2024-03-23T06:30:01;100583.84;;;22.89;50.54
67038;BME280;53940;53.204;6.590;2024-03-23T06:33:02;100583.84;;;22.89;50.47
67038;BME280;53940;53.204;6.590;2024-03-23T06:36:05;100575.94;;;22.88;50.55
67038;BME280;53940;53.204;6.590;2024-03-23T06:39:06;100575.25;;;22.86;50.55
67038;BME280;53940;53.204;6.590;2024-03-23T06:42:06;100575.25;;;22.86;50.69
67038;BME280;53940;53.204;6.590;2024-03-23T06:45:08;100576.25;;;22.85;50.68
67038;BME280;53940;53.204;6.590;2024-03-23T06:48:09;100570.88;;;22.85;50.57
67038;BME280;53940;53.204;6.590;2024-03-23T06:51:09;100570.88;;;22.85;50.71
67038;BME280;53940;53.204;6.590;2024-03-23T06:54:09;100576.25;;;22.85;50.52
67038;BME280;53940;53.204;6.590;2024-03-23T06:57:10;100573.41;;;22.86;50.74
67038;BME280;53940;53.204;6.590;2024-03-23T07:00:12;100572.56;;;22.86;50.84
67038;BME280;53940;53.204;6.590;2024-03-23T07:03:14;100574.25;;;22.87;50.84
67038;BME280;53940;53.204;6.590;2024-03-23T07:06:14;100578.78;;;22.86;50.54
67038;BME280;53940;53.204;6.590;2024-03-23T07:09:15;100579.63;;;22.87;50.68
67038;BME280;53940;53.204;6.590;2024-03-23T07:12:15;100582.31;;;22.87;50.79
67038;BME280;53940;53.204;6.590;2024-03-23T07:15:16;100574.25;;;22.87;50.75
67038;BME280;53940;53.204;6.590;2024-03-23T07:18:16;100572.56;;;22.86;50.86
67038;BME280;53940;53.204;6.590;2024-03-23T07:21:16;100575.94;;;22.88;50.96
67038;BME280;53940;53.204;6.590;2024-03-23T07:24:17;100580.63;;;22.86;50.97
67038;BME280;53940;53.204;6.590;2024-03-23T07:27:17;100577.94;;;22.86;50.95
67038;BME280;53940;53.204;6.590;2024-03-23T07:30:17;100568.03;;;22.86;50.86
67038;BME280;53940;53.204;6.590;2024-03-23T07:33:18;100560.00;;;22.86;50.97
67038;BME280;53940;53.204;6.590;2024-03-23T07:36:18;100563.34;;;22.88;51.18
67038;BME280;53940;53.204;6.590;2024-03-23T07:39:19;100560.50;;;22.90;51.36
67038;BME280;53940;53.204;6.590;2024-03-23T07:42:19;100557.66;;;22.92;51.29
67038;BME280;53940;53.204;6.590;2024-03-23T07:45:19;100548.44;;;22.94;51.55
67038;BME280;53940;53.204;6.590;2024-03-23T07:48:21;100550.78;;;22.97;51.63
67038;BME280;53940;53.204;6.590;2024-03-23T07:51:23;100551.47;;;22.99;51.31
67038;BME280;53940;53.204;6.590;2024-03-23T07:54:23;100549.47;;;23.01;51.58
67038;BME280;53940;53.204;6.590;2024-03-23T07:57:24;100552.81;;;23.04;51.88
67038;BME280;53940;53.204;6.590;2024-03-23T08:00:24;100552.53;;;23.07;51.79
67038;BME280;53940;53.204;6.590;2024-03-23T08:03:24;100540.56;;;23.09;51.78
67038;BME280;53940;53.204;6.590;2024-03-23T08:06:25;100548.47;;;23.11;51.65
67038;BME280;53940;53.204;6.590;2024-03-23T08:09:25;100551.88;;;23.13;51.85
67038;BME280;53940;53.204;6.590;2024-03-23T08:12:26;100559.75;;;23.14;51.90
67038;BME280;53940;53.204;6.590;2024-03-23T08:15:26;100571.34;;;23.15;52.04
67038;BME280;53940;53.204;6.590;2024-03-23T08:18:27;100559.75;;;23.14;51.85
67038;BME280;53940;53.204;6.590;2024-03-23T08:21:27;100555.22;;;23.15;51.81
67038;BME280;53940;53.204;6.590;2024-03-23T08:24:27;100553.19;;;23.17;51.72
67038;BME280;53940;53.204;6.590;2024-03-23T08:27:28;100552.19;;;23.18;51.78
67038;BME280;53940;53.204;6.590;2024-03-23T08:30:28;100544.81;;;23.20;51.78
67038;BME280;53940;53.204;6.590;2024-03-23T08:33:29;100548.19;;;23.22;51.78
67038;BME280;53940;53.204;6.590;2024-03-23T08:36:30;100548.84;;;23.24;51.75
67038;BME280;53940;53.204;6.590;2024-03-23T08:39:30;100542.50;;;23.25;51.78
67038;BME280;53940;53.204;6.590;2024-03-23T08:42:31;100537.78;;;23.27;51.79
67038;BME280;53940;53.204;6.590;2024-03-23T08:45:31;100544.84;;;23.28;51.80
67038;BME280;53940;53.204;6.590;2024-03-23T08:48:32;100536.63;;;23.30;51.73
67038;BME280;53940;53.204;6.590;2024-03-23T08:51:32;100527.56;;;23.31;51.67
67038;BME280;53940;53.204;6.590;2024-03-23T08:54:32;100528.44;;;23.32;51.66
67038;BME280;53940;53.204;6.590;2024-03-23T08:57:33;100513.97;;;23.33;51.73
67038;BME280;53940;53.204;6.590;2024-03-23T09:00:34;100518.50;;;23.32;51.71
67038;BME280;53940;53.204;6.590;2024-03-23T09:03:35;100517.31;;;23.35;51.77
67038;BME280;53940;53.204;6.590;2024-03-23T09:06:36;100510.94;;;23.36;51.63
67038;BME280;53940;53.204;6.590;2024-03-23T09:09:39;100509.94;;;23.37;51.63
67038;BME280;53940;53.204;6.590;2024-03-23T09:12:40;100511.63;;;23.38;51.67
67038;BME280;53940;53.204;6.590;2024-03-23T09:15:50;100493.47;;;23.40;51.70
67038;BME280;53940;53.204;6.590;2024-03-23T09:18:51;100495.16;;;23.41;51.61
67038;BME280;53940;53.204;6.590;2024-03-23T09:21:52;100492.31;;;23.42;51.69
67038;BME280;53940;53.204;6.590;2024-03-23T09:24:52;100493.97;;;23.44;51.56
67038;BME280;53940;53.204;6.590;2024-03-23T09:27:53;100499.19;;;23.45;51.74
67038;BME280;53940;53.204;6.590;2024-03-23T09:30:53;100468.59;;;23.46;51.84
67038;BME280;53940;53.204;6.590;2024-03-23T09:33:53;100478.34;;;23.47;51.84
67038;BME280;53940;53.204;6.590;2024-03-23T09:36:54;100525.75;;;23.48;51.93
67038;BME280;53940;53.204;6.590;2024-03-23T09:39:54;100549.94;;;23.48;52.16
67038;BME280;53940;53.204;6.590;2024-03-23T09:42:55;100532.13;;;23.47;51.97
67038;BME280;53940;53.204;6.590;2024-03-23T09:45:55;100517.69;;;23.48;52.10
67038;BME280;53940;53.204;6.590;2024-03-23T09:48:56;100525.06;;;23.46;51.94
67038;BME280;53940;53.204;6.590;2024-03-23T09:51:57;100519.69;;;23.46;52.06
67038;BME280;53940;53.204;6.590;2024-03-23T09:54:57;100515.34;;;23.45;52.03
67038;BME280;53940;53.204;6.590;2024-03-23T09:57:57;100514.47;;;23.45;52.07
67038;BME280;53940;53.204;6.590;2024-03-23T10:00:58;100495.81;;;23.43;52.04
67038;BME280;53940;53.204;6.590;2024-03-23T10:03:58;100498.50;;;23.43;52.29
67038;BME280;53940;53.204;6.590;2024-03-23T10:07:10;100509.25;;;23.43;52.06
67038;BME280;53940;53.204;6.590;2024-03-23T10:10:11;100501.38;;;23.41;52.13
67038;BME280;53940;53.204;6.590;2024-03-23T10:13:24;100486.06;;;23.42;52.23
67038;BME280;53940;53.204;6.590;2024-03-23T10:16:24;100480.69;;;23.42;52.23
67038;BME280;53940;53.204;6.590;2024-03-23T10:19:31;100496.81;;;23.42;52.40
67038;BME280;53940;53.204;6.590;2024-03-23T10:22:39;100484.41;;;23.41;52.36
67038;BME280;53940;53.204;6.590;2024-03-23T10:25:39;100486.06;;;23.42;52.47
67038;BME280;53940;53.204;6.590;2024-03-23T10:31:53;100489.78;;;23.41;52.42
67038;BME280;53940;53.204;6.590;2024-03-23T10:34:53;100481.72;;;23.41;52.34
67038;BME280;53940;53.204;6.590;2024-03-23T10:37:54;100470.13;;;23.40;52.50
67038;BME280;53940;53.204;6.590;2024-03-23T10:40:57;100464.75;;;23.40;52.49
67038;BME280;53940;53.204;6.590;2024-03-23T10:43:58;100466.59;;;23.40;52.54
67038;BME280;53940;53.204;6.590;2024-03-23T10:47:00;100483.72;;;23.39;52.56
67038;BME280;53940;53.204;6.590;2024-03-23T10:50:01;100478.34;;;23.39;52.46
67038;BME280;53940;53.204;6.590;2024-03-23T10:53:01;100479.38;;;23.38;52.49
67038;BME280;53940;53.204;6.590;2024-03-23T10:56:04;100483.88;;;23.37;52.46
67038;BME280;53940;53.204;6.590;2024-03-23T10:59:06;100485.72;;;23.37;52.47
67038;BME280;53940;53.204;6.590;2024-03-23T11:02:18;100492.81;;;23.38;52.54
67038;BME280;53940;53.204;6.590;2024-03-23T11:05:29;100502.88;;;23.36;52.74
67038;BME280;53940;53.204;6.590;2024-03-23T11:08:37;100514.47;;;23.36;52.69
67038;BME280;53940;53.204;6.590;2024-03-23T11:11:38;100516.31;;;23.36;52.62
67038;BME280;53940;53.204;6.590;2024-03-23T11:14:38;100527.25;;;23.34;52.53
67038;BME280;53940;53.204;6.590;2024-03-23T11:17:38;100519.34;;;23.33;52.57
67038;BME280;53940;53.204;6.590;2024-03-23T11:20:39;100512.28;;;23.32;52.69
67038;BME280;53940;53.204;6.590;2024-03-23T11:23:39;100506.06;;;23.31;52.51
67038;BME280;53940;53.204;6.590;2024-03-23T11:26:40;100507.19;;;23.28;52.54
67038;BME280;53940;53.204;6.590;2024-03-23T11:29:40;100508.88;;;23.29;52.69
67038;BME280;53940;53.204;6.590;2024-03-23T11:32:45;100506.38;;;23.28;53.08
67038;BME280;53940;53.204;6.590;2024-03-23T11:35:46;100498.31;;;23.28;52.91
67038;BME280;53940;53.204;6.590;2024-03-23T11:38:46;100493.91;;;23.27;52.87
67038;BME280;53940;53.204;6.590;2024-03-23T11:41:48;100489.41;;;23.27;53.01
67038;BME280;53940;53.204;6.590;2024-03-23T11:44:48;100481.47;;;23.26;52.89
67038;BME280;53940;53.204;6.590;2024-03-23T11:47:48;100476.09;;;23.26;53.01
67038;BME280;53940;53.204;6.590;2024-03-23T11:50:53;100471.59;;;23.26;53.06
67038;BME280;53940;53.204;6.590;2024-03-23T11:53:54;100469.72;;;23.27;52.86
67038;BME280;53940;53.204;6.590;2024-03-23T11:57:07;100474.28;;;23.26;53.13
67038;BME280;53940;53.204;6.590;2024-03-23T12:00:24;100468.19;;;23.24;53.11
67038;BME280;53940;53.204;6.590;2024-03-23T12:03:25;100462.81;;;23.24;53.03
67038;BME280;53940;53.204;6.590;2024-03-23T12:06:27;100472.75;;;23.24;52.90
67038;BME280;53940;53.204;6.590;2024-03-23T12:09:27;100479.97;;;23.23;53.08
67038;BME280;53940;53.204;6.590;2024-03-23T12:12:27;100469.38;;;23.22;53.00
67038;BME280;53940;53.204;6.590;2024-03-23T12:15:28;100480.97;;;23.22;52.87
67038;BME280;53940;53.204;6.590;2024-03-23T12:18:29;100506.19;;;23.21;52.92
67038;BME280;53940;53.204;6.590;2024-03-23T12:21:30;100500.81;;;23.21;53.03
67038;BME280;53940;53.204;6.590;2024-03-23T12:24:31;100500.13;;;23.19;52.95
67038;BME280;53940;53.204;6.590;2024-03-23T12:27:32;100501.13;;;23.18;53.01
67038;BME280;53940;53.204;6.590;2024-03-23T12:30:33;100495.75;;;23.18;53.12
67038;BME280;53940;53.204;6.590;2024-03-23T12:33:34;100485.00;;;23.18;53.01
67038;BME280;53940;53.204;6.590;2024-03-23T12:36:34;100492.22;;;23.18;52.75
67038;BME280;53940;53.204;6.590;2024-03-23T12:39:35;100481.63;;;23.16;52.87
67038;BME280;53940;53.204;6.590;2024-03-23T12:42:35;100472.56;;;23.17;52.78
67038;BME280;53940;53.204;6.590;2024-03-23T12:45:36;100480.78;;;23.15;52.76
67038;BME280;53940;53.204;6.590;2024-03-23T12:48:36;100474.59;;;23.15;52.61
67038;BME280;53940;53.204;6.590;2024-03-23T12:51:36;100469.22;;;23.15;52.56
67038;BME280;53940;53.204;6.590;2024-03-23T12:54:37;100481.97;;;23.13;52.68
67038;BME280;53940;53.204;6.590;2024-03-23T12:57:37;100492.72;;;23.13;52.48
67038;BME280;53940;53.204;6.590;2024-03-23T13:00:37;100476.59;;;23.13;52.69
67038;BME280;53940;53.204;6.590;2024-03-23T13:03:38;100472.06;;;23.13;52.69
67038;BME280;53940;53.204;6.590;2024-03-23T13:06:38;100464.84;;;23.14;52.90
67038;BME280;53940;53.204;6.590;2024-03-23T13:09:39;100462.81;;;23.16;53.16
67038;BME280;53940;53.204;6.590;2024-03-23T13:12:39;100467.19;;;23.17;53.43
67038;BME280;53940;53.204;6.590;2024-03-23T13:15:39;100461.66;;;23.19;53.54
67038;BME280;53940;53.204;6.590;2024-03-23T13:18:40;100470.56;;;23.19;53.76
67038;BME280;53940;53.204;6.590;2024-03-23T13:21:40;100468.56;;;23.21;53.53
67038;BME280;53940;53.204;6.590;2024-03-23T13:24:40;100475.59;;;23.22;53.90
67038;BME280;53940;53.204;6.590;2024-03-23T13:27:41;100466.53;;;23.23;53.93
67038;BME280;53940;53.204;6.590;2024-03-23T13:30:49;100464.53;;;23.25;54.29
67038;BME280;53940;53.204;6.590;2024-03-23T13:33:50;100451.75;;;23.27;54.03
67038;BME280;53940;53.204;6.590;2024-03-23T13:36:50;100451.59;;;23.29;54.03
67038;BME280;53940;53.204;6.590;2024-03-23T13:39:50;100474.78;;;23.30;54.02
67038;BME280;53940;53.204;6.590;2024-03-23T13:42:50;100472.94;;;23.31;54.10
67038;BME280;53940;53.204;6.590;2024-03-23T13:45:54;100469.28;;;23.32;53.98
67038;BME280;53940;53.204;6.590;2024-03-23T13:48:55;100471.97;;;23.32;53.95
67038;BME280;53940;53.204;6.590;2024-03-23T13:51:56;100444.22;;;23.31;53.94
67038;BME280;53940;53.204;6.590;2024-03-23T13:54:58;100453.97;;;23.32;53.69
67038;BME280;53940;53.204;6.590;2024-03-23T13:57:58;100440.53;;;23.32;53.57
67038;BME280;53940;53.204;6.590;2024-03-23T14:00:59;100442.38;;;23.32;53.56
67038;BME280;53940;53.204;6.590;2024-03-23T14:03:59;100455.97;;;23.30;53.47
67038;BME280;53940;53.204;6.590;2024-03-23T14:06:59;100445.38;;;23.28;52.91
67038;BME280;53940;53.204;6.590;2024-03-23T14:10:03;100441.00;;;23.27;52.70
67038;BME280;53940;53.204;6.590;2024-03-23T14:13:03;100446.69;;;23.24;52.93
67038;BME280;53940;53.204;6.590;2024-03-23T14:16:04;100454.94;;;23.23;52.79
67038;BME280;53940;53.204;6.590;2024-03-23T14:19:04;100452.41;;;23.21;52.86
67038;BME280;53940;53.204;6.590;2024-03-23T14:22:05;100461.50;;;23.20;52.84
67038;BME280;53940;53.204;6.590;2024-03-23T14:25:06;100452.72;;;23.18;52.86
67038;BME280;53940;53.204;6.590;2024-03-23T14:28:07;100451.06;;;23.17;52.79
67038;BME280;53940;53.204;6.590;2024-03-23T14:31:13;100447.72;;;23.15;52.81
67038;BME280;53940;53.204;6.590;2024-03-23T14:34:14;100451.41;;;23.14;52.96
67038;BME280;53940;53.204;6.590;2024-03-23T14:37:14;100448.03;;;23.12;52.74
67038;BME280;53940;53.204;6.590;2024-03-23T14:40:15;100440.16;;;23.10;52.94
67038;BME280;53940;53.204;6.590;2024-03-23T14:43:16;100434.94;;;23.09;52.88
67038;BME280;53940;53.204;6.590;2024-03-23T14:46:16;100442.13;;;23.08;52.81
67038;BME280;53940;53.204;6.590;2024-03-23T14:49:17;100436.09;;;23.06;52.88
67038;BME280;53940;53.204;6.590;2024-03-23T14:52:17;100445.16;;;23.05;52.89
67038;BME280;53940;53.204;6.590;2024-03-23T14:55:18;100433.72;;;23.03;52.87
67038;BME280;53940;53.204;6.590;2024-03-23T14:58:19;100430.38;;;23.01;52.86
67038;BME280;53940;53.204;6.590;2024-03-23T15:01:20;100434.94;;;23.00;52.77
67038;BME280;53940;53.204;6.590;2024-03-23T15:04:21;100432.56;;;22.97;52.81
67038;BME280;53940;53.204;6.590;2024-03-23T15:07:21;100433.56;;;22.96;52.95
67038;BME280;53940;53.204;6.590;2024-03-23T15:10:21;100431.88;;;22.95;52.88
67038;BME280;53940;53.204;6.590;2024-03-23T15:13:22;100420.28;;;22.95;52.82
67038;BME280;53940;53.204;6.590;2024-03-23T15:16:25;100423.13;;;22.93;52.89
67038;BME280;53940;53.204;6.590;2024-03-23T15:19:26;100416.06;;;22.92;52.82
67038;BME280;53940;53.204;6.590;2024-03-23T15:22:26;100414.41;;;22.91;52.99
67038;BME280;53940;53.204;6.590;2024-03-23T15:25:27;100417.25;;;22.89;52.91
67038;BME280;53940;53.204;6.590;2024-03-23T15:28:28;100413.03;;;22.87;53.03
67038;BME280;53940;53.204;6.590;2024-03-23T15:31:47;100408.69;;;22.86;53.06
67038;BME280;53940;53.204;6.590;2024-03-23T15:34:51;100404.31;;;22.85;52.97
67038;BME280;53940;53.204;6.590;2024-03-23T15:37:52;100403.47;;;22.84;53.05
67038;BME280;53940;53.204;6.590;2024-03-23T15:40:52;100405.31;;;22.84;52.99
67038;BME280;53940;53.204;6.590;2024-03-23T15:43:53;100406.34;;;22.83;53.26
67038;BME280;53940;53.204;6.590;2024-03-23T15:46:53;100408.16;;;22.82;53.18
67038;BME280;53940;53.204;6.590;2024-03-23T15:49:53;100394.91;;;22.81;52.76
67038;BME280;53940;53.204;6.590;2024-03-23T15:52:55;100386.00;;;22.80;52.96
67038;BME280;53940;53.204;6.590;2024-03-23T15:56:02;100383.47;;;22.79;52.47
67038;BME280;53940;53.204;6.590;2024-03-23T15:59:03;100385.50;;;22.77;52.13
67038;BME280;53940;53.204;6.590;2024-03-23T16:02:06;100381.81;;;22.78;52.50
67038;BME280;53940;53.204;6.590;2024-03-23T16:05:07;100381.81;;;22.78;52.63
67038;BME280;53940;53.204;6.590;2024-03-23T16:08:11;100385.50;;;22.77;52.79
67038;BME280;53940;53.204;6.590;2024-03-23T16:11:11;100381.97;;;22.76;52.55
67038;BME280;53940;53.204;6.590;2024-03-23T16:14:11;100378.47;;;22.75;52.50
67038;BME280;53940;53.204;6.590;2024-03-23T16:17:12;100366.00;;;22.74;52.65
67038;BME280;53940;53.204;6.590;2024-03-23T16:20:12;100375.06;;;22.73;52.60
67038;BME280;53940;53.204;6.590;2024-03-23T16:23:13;100373.41;;;22.72;52.76
67038;BME280;53940;53.204;6.590;2024-03-23T16:26:13;100375.22;;;22.72;52.76
67038;BME280;53940;53.204;6.590;2024-03-23T16:29:16;100364.66;;;22.70;52.70
67038;BME280;53940;53.204;6.590;2024-03-23T16:32:16;100374.56;;;22.70;52.62
67038;BME280;53940;53.204;6.590;2024-03-23T16:35:17;100372.88;;;22.69;52.79
67038;BME280;53940;53.204;6.590;2024-03-23T16:38:17;100378.41;;;22.67;52.81
67038;BME280;53940;53.204;6.590;2024-03-23T16:41:17;100366.00;;;22.66;52.76